Timisoara, Romania

2:21 PM EEST on May 25, 2015 (GMT +0300)
Dumbravita | | Change Station
CLOSE
Current Station
Personal Weather Station
Location: Timisoara, Timis
Elevation: 305 ft
Nearby Weather Stations

Elev 305 ft 45.80 °N, 21.24 °E | Updated 1 minute ago

Light Rain Showers
Light Showers Rain
62.1 °F
Feels Like 62.1 °F
N
10.0
Wind Variable Wind from SSW
Gusts 16.0 mph

Today
High -- | Low -- °F
--% Chance of Precip.
Yesterday
High -- | Low -- °F
Precip. -- in
5:54 AM 9:10 PM
Waxing Crescent, 48% visible
Pressure 29.80 in
Visibility 4.3 miles
Clouds Scattered Clouds 1700 ft
Scattered Clouds 3500 ft
Few 4500 ft
Dew Point 51 °F
Humidity 86%
Rainfall 0.36 in
Snow Depth Not available.
UV 9 out of 12
Pollen Not available.
Air Quality Not available.
Flu Activity Not available.
METAR LRTR 251100Z 21011KT 7000 -SHRA SCT017 SCT035 FEW045CB 16/14 Q1009 RESHRA R11/190095 NOSIG

More Conditions Fewer Conditions

Pressure 29.80 in
Visibility 4.3 miles
Clouds Scattered Clouds 1700 ft
Scattered Clouds 3500 ft
Few 4500 ft
Dew Point 51 °F
Humidity 86%
Rainfall 0.36 in
Snow Depth Not available.
UV 9 out of 12
Pollen Not available.
Air Quality Not available.
Flu Activity Not available.
METAR LRTR 251100Z 21011KT 7000 -SHRA SCT017 SCT035 FEW045CB 16/14 Q1009 RESHRA R11/190095 NOSIG

More Conditions Fewer Conditions

10-Day Weather Forecast

Almanac

Astronomy

May. 25, 2015 Rise Set
Actual Time
Civil Twilight
Nautical Twilight
Astronomical Twilight
Moon
Length of Visible Light
Length of Day
Tomorrow will be .
, % of the Moon is Illuminated

Today's Extremes

Country Highs Country Lows

Community

WunderPhotos

Upload Photos

1,823,980 photos uploaded!

WunderBlogs® & News

Nearby

Air Quality

  Air Quality AQ Index Pollutant
Not available.

Snow Depth

Station Depth Elevation

Earthquake Activity

City Distance Mag. Time & Date
Minimum magnitude displayed is 2.5.

Coastal Water Temperatures

Place Temperature

Stations

Nearby Weather Stations

Station Location Temp. Windchill Dew Point Humidity Wind Precip. Elev Updated Type